sensor_id;sensor_type;location;lat;lon;timestamp;P1;durP1;ratioP1;P2;durP2;ratioP2
12990;SDS011;6560;57.692;11.958;2023-07-20T00:02:00;8.90;;;3.10;;
12990;SDS011;6560;57.692;11.958;2023-07-20T00:04:25;15.07;;;2.67;;
12990;SDS011;6560;57.692;11.958;2023-07-20T00:06:51;9.70;;;2.75;;
12990;SDS011;6560;57.692;11.958;2023-07-20T00:09:16;10.57;;;3.35;;
12990;SDS011;6560;57.692;11.958;2023-07-20T00:11:48;10.30;;;2.80;;
12990;SDS011;6560;57.692;11.958;2023-07-20T00:14:16;8.13;;;2.17;;
12990;SDS011;6560;57.692;11.958;2023-07-20T00:16:43;11.60;;;2.80;;
12990;SDS011;6560;57.692;11.958;2023-07-20T00:19:08;6.10;;;2.42;;
12990;SDS011;6560;57.692;11.958;2023-07-20T00:21:35;9.10;;;2.47;;
12990;SDS011;6560;57.692;11.958;2023-07-20T00:24:01;8.55;;;3.05;;
12990;SDS011;6560;57.692;11.958;2023-07-20T00:26:26;9.60;;;2.83;;
12990;SDS011;6560;57.692;11.958;2023-07-20T00:28:53;13.57;;;3.28;;
12990;SDS011;6560;57.692;11.958;2023-07-20T00:31:19;6.13;;;2.50;;
12990;SDS011;6560;57.692;11.958;2023-07-20T00:33:44;11.23;;;2.97;;
12990;SDS011;6560;57.692;11.958;2023-07-20T00:36:11;9.00;;;2.83;;
12990;SDS011;6560;57.692;11.958;2023-07-20T00:38:37;7.93;;;2.50;;
12990;SDS011;6560;57.692;11.958;2023-07-20T00:41:03;6.95;;;2.83;;
12990;SDS011;6560;57.692;11.958;2023-07-20T00:43:28;8.27;;;3.15;;
12990;SDS011;6560;57.692;11.958;2023-07-20T00:45:54;9.02;;;2.72;;
12990;SDS011;6560;57.692;11.958;2023-07-20T00:48:20;7.67;;;1.80;;
12990;SDS011;6560;57.692;11.958;2023-07-20T00:50:46;6.85;;;2.30;;
12990;SDS011;6560;57.692;11.958;2023-07-20T00:53:13;7.35;;;2.33;;
12990;SDS011;6560;57.692;11.958;2023-07-20T00:55:39;6.63;;;2.17;;
12990;SDS011;6560;57.692;11.958;2023-07-20T00:58:06;8.73;;;2.65;;
12990;SDS011;6560;57.692;11.958;2023-07-20T01:00:32;6.88;;;2.35;;
12990;SDS011;6560;57.692;11.958;2023-07-20T01:02:58;9.68;;;2.80;;
12990;SDS011;6560;57.692;11.958;2023-07-20T01:05:25;7.43;;;2.00;;
12990;SDS011;6560;57.692;11.958;2023-07-20T01:08:17;8.70;;;2.50;;
12990;SDS011;6560;57.692;11.958;2023-07-20T01:10:54;9.93;;;2.55;;
12990;SDS011;6560;57.692;11.958;2023-07-20T01:13:28;6.60;;;1.98;;
12990;SDS011;6560;57.692;11.958;2023-07-20T01:16:00;10.90;;;2.58;;
12990;SDS011;6560;57.692;11.958;2023-07-20T01:18:26;10.27;;;2.37;;
12990;SDS011;6560;57.692;11.958;2023-07-20T01:20:52;4.28;;;1.60;;
12990;SDS011;6560;57.692;11.958;2023-07-20T01:31:14;9.45;;;2.20;;
12990;SDS011;6560;57.692;11.958;2023-07-20T01:33:42;1.58;;;1.48;;
12990;SDS011;6560;57.692;11.958;2023-07-20T01:36:09;6.18;;;1.95;;
12990;SDS011;6560;57.692;11.958;2023-07-20T01:38:36;2.15;;;1.33;;
12990;SDS011;6560;57.692;11.958;2023-07-20T01:41:02;3.90;;;1.70;;
12990;SDS011;6560;57.692;11.958;2023-07-20T01:43:30;6.47;;;1.90;;
12990;SDS011;6560;57.692;11.958;2023-07-20T01:45:55;3.37;;;1.50;;
12990;SDS011;6560;57.692;11.958;2023-07-20T01:48:21;3.47;;;1.40;;
12990;SDS011;6560;57.692;11.958;2023-07-20T01:50:46;5.67;;;1.90;;
12990;SDS011;6560;57.692;11.958;2023-07-20T01:53:13;5.83;;;1.63;;
12990;SDS011;6560;57.692;11.958;2023-07-20T01:55:39;8.37;;;2.33;;
12990;SDS011;6560;57.692;11.958;2023-07-20T01:58:04;7.53;;;1.67;;
12990;SDS011;6560;57.692;11.958;2023-07-20T02:00:31;5.43;;;1.67;;
12990;SDS011;6560;57.692;11.958;2023-07-20T02:02:56;9.97;;;2.20;;
12990;SDS011;6560;57.692;11.958;2023-07-20T02:05:22;7.60;;;2.10;;
12990;SDS011;6560;57.692;11.958;2023-07-20T02:07:48;6.23;;;1.57;;
12990;SDS011;6560;57.692;11.958;2023-07-20T02:10:13;11.13;;;2.00;;
12990;SDS011;6560;57.692;11.958;2023-07-20T02:12:39;5.37;;;1.53;;
12990;SDS011;6560;57.692;11.958;2023-07-20T02:15:04;6.00;;;1.83;;
12990;SDS011;6560;57.692;11.958;2023-07-20T02:17:30;5.90;;;2.20;;
12990;SDS011;6560;57.692;11.958;2023-07-20T02:19:56;7.53;;;2.10;;
12990;SDS011;6560;57.692;11.958;2023-07-20T02:22:25;5.57;;;1.37;;
12990;SDS011;6560;57.692;11.958;2023-07-20T02:24:50;4.50;;;1.80;;
12990;SDS011;6560;57.692;11.958;2023-07-20T02:27:17;8.57;;;2.00;;
12990;SDS011;6560;57.692;11.958;2023-07-20T02:29:42;6.77;;;2.10;;
12990;SDS011;6560;57.692;11.958;2023-07-20T02:32:08;6.57;;;2.00;;
12990;SDS011;6560;57.692;11.958;2023-07-20T02:34:37;6.27;;;2.43;;
12990;SDS011;6560;57.692;11.958;2023-07-20T02:37:03;6.87;;;2.27;;
12990;SDS011;6560;57.692;11.958;2023-07-20T02:39:29;5.97;;;1.87;;
12990;SDS011;6560;57.692;11.958;2023-07-20T02:41:55;7.07;;;2.47;;
12990;SDS011;6560;57.692;11.958;2023-07-20T02:44:21;6.83;;;1.77;;
12990;SDS011;6560;57.692;11.958;2023-07-20T02:46:46;4.80;;;1.87;;
12990;SDS011;6560;57.692;11.958;2023-07-20T02:49:14;6.87;;;2.67;;
12990;SDS011;6560;57.692;11.958;2023-07-20T02:51:40;12.10;;;2.73;;
12990;SDS011;6560;57.692;11.958;2023-07-20T02:54:06;7.77;;;2.53;;
12990;SDS011;6560;57.692;11.958;2023-07-20T02:56:31;6.83;;;2.20;;
12990;SDS011;6560;57.692;11.958;2023-07-20T02:58:57;8.53;;;2.47;;
12990;SDS011;6560;57.692;11.958;2023-07-20T03:01:22;4.80;;;2.13;;
12990;SDS011;6560;57.692;11.958;2023-07-20T03:03:48;6.90;;;2.67;;
12990;SDS011;6560;57.692;11.958;2023-07-20T03:06:15;5.13;;;1.87;;
12990;SDS011;6560;57.692;11.958;2023-07-20T03:08:43;5.40;;;2.17;;
12990;SDS011;6560;57.692;11.958;2023-07-20T03:11:10;9.97;;;2.23;;
12990;SDS011;6560;57.692;11.958;2023-07-20T03:13:36;6.43;;;2.10;;
12990;SDS011;6560;57.692;11.958;2023-07-20T03:16:03;6.60;;;2.30;;
12990;SDS011;6560;57.692;11.958;2023-07-20T03:18:29;6.33;;;2.03;;
12990;SDS011;6560;57.692;11.958;2023-07-20T03:20:54;10.57;;;2.60;;
12990;SDS011;6560;57.692;11.958;2023-07-20T03:23:20;5.33;;;1.97;;
12990;SDS011;6560;57.692;11.958;2023-07-20T03:25:45;6.10;;;2.20;;
12990;SDS011;6560;57.692;11.958;2023-07-20T03:28:12;4.15;;;1.35;;
12990;SDS011;6560;57.692;11.958;2023-07-20T03:30:37;6.77;;;1.97;;
12990;SDS011;6560;57.692;11.958;2023-07-20T03:33:03;6.40;;;1.70;;
12990;SDS011;6560;57.692;11.958;2023-07-20T03:35:32;2.50;;;1.27;;
12990;SDS011;6560;57.692;11.958;2023-07-20T03:37:57;3.40;;;1.43;;
12990;SDS011;6560;57.692;11.958;2023-07-20T03:40:23;3.13;;;1.10;;
12990;SDS011;6560;57.692;11.958;2023-07-20T03:42:49;6.93;;;2.33;;
12990;SDS011;6560;57.692;11.958;2023-07-20T03:45:16;4.83;;;1.83;;
12990;SDS011;6560;57.692;11.958;2023-07-20T03:47:41;5.40;;;1.53;;
12990;SDS011;6560;57.692;11.958;2023-07-20T03:50:07;2.47;;;1.07;;
12990;SDS011;6560;57.692;11.958;2023-07-20T03:52:35;5.37;;;1.30;;
12990;SDS011;6560;57.692;11.958;2023-07-20T03:55:02;3.53;;;1.30;;
12990;SDS011;6560;57.692;11.958;2023-07-20T03:57:28;4.87;;;1.90;;
12990;SDS011;6560;57.692;11.958;2023-07-20T03:59:53;1.70;;;1.10;;
12990;SDS011;6560;57.692;11.958;2023-07-20T04:02:20;4.33;;;1.43;;
12990;SDS011;6560;57.692;11.958;2023-07-20T04:04:45;5.50;;;1.33;;
12990;SDS011;6560;57.692;11.958;2023-07-20T04:07:11;5.67;;;1.70;;
12990;SDS011;6560;57.692;11.958;2023-07-20T04:09:36;6.37;;;1.90;;
12990;SDS011;6560;57.692;11.958;2023-07-20T04:12:03;5.90;;;1.60;;
12990;SDS011;6560;57.692;11.958;2023-07-20T04:14:28;5.03;;;1.80;;
12990;SDS011;6560;57.692;11.958;2023-07-20T04:16:54;5.67;;;1.80;;
12990;SDS011;6560;57.692;11.958;2023-07-20T04:19:19;3.00;;;1.60;;
12990;SDS011;6560;57.692;11.958;2023-07-20T04:21:45;5.13;;;1.93;;
12990;SDS011;6560;57.692;11.958;2023-07-20T04:24:10;5.13;;;1.67;;
12990;SDS011;6560;57.692;11.958;2023-07-20T04:26:36;10.33;;;1.67;;
12990;SDS011;6560;57.692;11.958;2023-07-20T04:29:02;5.70;;;1.80;;
12990;SDS011;6560;57.692;11.958;2023-07-20T04:31:28;2.40;;;1.30;;
12990;SDS011;6560;57.692;11.958;2023-07-20T04:33:57;5.35;;;1.27;;
12990;SDS011;6560;57.692;11.958;2023-07-20T04:36:23;4.18;;;1.90;;
12990;SDS011;6560;57.692;11.958;2023-07-20T04:38:48;5.82;;;1.35;;
12990;SDS011;6560;57.692;11.958;2023-07-20T04:41:14;2.42;;;1.25;;
12990;SDS011;6560;57.692;11.958;2023-07-20T04:43:46;3.55;;;1.10;;
12990;SDS011;6560;57.692;11.958;2023-07-20T04:46:12;6.65;;;1.60;;
12990;SDS011;6560;57.692;11.958;2023-07-20T04:48:38;6.20;;;1.20;;
12990;SDS011;6560;57.692;11.958;2023-07-20T04:51:05;1.98;;;0.90;;
12990;SDS011;6560;57.692;11.958;2023-07-20T04:53:31;2.97;;;1.35;;
12990;SDS011;6560;57.692;11.958;2023-07-20T04:55:57;2.25;;;0.90;;
12990;SDS011;6560;57.692;11.958;2023-07-20T04:58:22;4.60;;;1.27;;
12990;SDS011;6560;57.692;11.958;2023-07-20T05:00:48;6.65;;;1.25;;
12990;SDS011;6560;57.692;11.958;2023-07-20T05:03:14;1.40;;;1.00;;
12990;SDS011;6560;57.692;11.958;2023-07-20T05:05:42;2.92;;;0.77;;
12990;SDS011;6560;57.692;11.958;2023-07-20T05:08:08;5.80;;;1.27;;
12990;SDS011;6560;57.692;11.958;2023-07-20T05:10:34;2.97;;;0.95;;
12990;SDS011;6560;57.692;11.958;2023-07-20T05:12:59;3.78;;;1.42;;
12990;SDS011;6560;57.692;11.958;2023-07-20T05:15:26;3.08;;;1.10;;
12990;SDS011;6560;57.692;11.958;2023-07-20T05:17:51;2.55;;;1.02;;
12990;SDS011;6560;57.692;11.958;2023-07-20T05:20:17;8.52;;;1.40;;
12990;SDS011;6560;57.692;11.958;2023-07-20T05:22:42;4.63;;;1.63;;
12990;SDS011;6560;57.692;11.958;2023-07-20T05:25:10;3.33;;;1.00;;
12990;SDS011;6560;57.692;11.958;2023-07-20T05:27:36;2.40;;;1.30;;
12990;SDS011;6560;57.692;11.958;2023-07-20T05:30:02;1.85;;;1.20;;
12990;SDS011;6560;57.692;11.958;2023-07-20T05:32:29;3.70;;;0.85;;
12990;SDS011;6560;57.692;11.958;2023-07-20T05:34:55;4.60;;;0.90;;
12990;SDS011;6560;57.692;11.958;2023-07-20T05:37:21;6.90;;;1.27;;
12990;SDS011;6560;57.692;11.958;2023-07-20T05:39:46;7.30;;;1.65;;
12990;SDS011;6560;57.692;11.958;2023-07-20T05:42:13;4.15;;;1.50;;
12990;SDS011;6560;57.692;11.958;2023-07-20T05:44:39;3.22;;;1.30;;
12990;SDS011;6560;57.692;11.958;2023-07-20T05:47:04;2.92;;;1.40;;
12990;SDS011;6560;57.692;11.958;2023-07-20T05:49:30;6.63;;;1.52;;
12990;SDS011;6560;57.692;11.958;2023-07-20T05:51:56;1.83;;;1.02;;
12990;SDS011;6560;57.692;11.958;2023-07-20T05:54:23;4.15;;;1.10;;
12990;SDS011;6560;57.692;11.958;2023-07-20T05:56:49;4.60;;;1.30;;
12990;SDS011;6560;57.692;11.958;2023-07-20T05:59:15;4.72;;;1.35;;
12990;SDS011;6560;57.692;11.958;2023-07-20T06:01:41;4.10;;;1.23;;
12990;SDS011;6560;57.692;11.958;2023-07-20T06:04:08;3.80;;;1.00;;
12990;SDS011;6560;57.692;11.958;2023-07-20T06:06:34;5.07;;;1.30;;
12990;SDS011;6560;57.692;11.958;2023-07-20T06:09:00;4.57;;;1.20;;
12990;SDS011;6560;57.692;11.958;2023-07-20T06:11:29;6.88;;;1.50;;
12990;SDS011;6560;57.692;11.958;2023-07-20T06:13:55;4.43;;;1.10;;
12990;SDS011;6560;57.692;11.958;2023-07-20T06:16:21;3.83;;;1.27;;
12990;SDS011;6560;57.692;11.958;2023-07-20T06:18:47;8.25;;;1.80;;
12990;SDS011;6560;57.692;11.958;2023-07-20T06:21:12;5.25;;;1.77;;
12990;SDS011;6560;57.692;11.958;2023-07-20T06:23:38;6.40;;;1.27;;
12990;SDS011;6560;57.692;11.958;2023-07-20T06:26:07;3.97;;;1.77;;
12990;SDS011;6560;57.692;11.958;2023-07-20T06:28:33;2.88;;;1.45;;
12990;SDS011;6560;57.692;11.958;2023-07-20T06:31:02;4.57;;;1.20;;
12990;SDS011;6560;57.692;11.958;2023-07-20T06:33:29;2.85;;;1.13;;
12990;SDS011;6560;57.692;11.958;2023-07-20T06:35:55;3.05;;;0.90;;
12990;SDS011;6560;57.692;11.958;2023-07-20T06:38:22;4.80;;;0.85;;
12990;SDS011;6560;57.692;11.958;2023-07-20T06:40:50;4.60;;;1.00;;
12990;SDS011;6560;57.692;11.958;2023-07-20T06:43:18;5.22;;;0.90;;
12990;SDS011;6560;57.692;11.958;2023-07-20T06:45:44;3.53;;;1.20;;
12990;SDS011;6560;57.692;11.958;2023-07-20T06:48:09;2.60;;;0.98;;
12990;SDS011;6560;57.692;11.958;2023-07-20T06:50:35;5.78;;;1.23;;
12990;SDS011;6560;57.692;11.958;2023-07-20T06:53:02;4.38;;;1.10;;
12990;SDS011;6560;57.692;11.958;2023-07-20T06:55:29;4.35;;;1.52;;
12990;SDS011;6560;57.692;11.958;2023-07-20T06:57:55;8.05;;;1.27;;
12990;SDS011;6560;57.692;11.958;2023-07-20T07:00:22;6.30;;;1.77;;
12990;SDS011;6560;57.692;11.958;2023-07-20T07:02:48;3.10;;;1.00;;
12990;SDS011;6560;57.692;11.958;2023-07-20T07:05:16;2.72;;;1.02;;
12990;SDS011;6560;57.692;11.958;2023-07-20T07:07:41;4.65;;;1.42;;
12990;SDS011;6560;57.692;11.958;2023-07-20T07:10:07;2.92;;;0.85;;
12990;SDS011;6560;57.692;11.958;2023-07-20T07:12:33;4.78;;;1.25;;
12990;SDS011;6560;57.692;11.958;2023-07-20T07:15:02;2.60;;;0.88;;
12990;SDS011;6560;57.692;11.958;2023-07-20T07:17:31;3.88;;;1.42;;
12990;SDS011;6560;57.692;11.958;2023-07-20T07:19:57;6.15;;;1.17;;
12990;SDS011;6560;57.692;11.958;2023-07-20T07:22:24;5.45;;;0.88;;
12990;SDS011;6560;57.692;11.958;2023-07-20T07:24:52;3.35;;;1.15;;
12990;SDS011;6560;57.692;11.958;2023-07-20T07:27:18;5.03;;;1.00;;
12990;SDS011;6560;57.692;11.958;2023-07-20T07:29:44;5.05;;;1.27;;
12990;SDS011;6560;57.692;11.958;2023-07-20T07:32:09;4.07;;;1.60;;
12990;SDS011;6560;57.692;11.958;2023-07-20T07:34:36;2.97;;;1.08;;
12990;SDS011;6560;57.692;11.958;2023-07-20T07:37:02;6.63;;;1.23;;
12990;SDS011;6560;57.692;11.958;2023-07-20T07:39:29;6.03;;;1.20;;
12990;SDS011;6560;57.692;11.958;2023-07-20T07:41:55;2.80;;;1.15;;
12990;SDS011;6560;57.692;11.958;2023-07-20T07:44:21;4.95;;;1.27;;
12990;SDS011;6560;57.692;11.958;2023-07-20T07:46:49;3.45;;;0.77;;
12990;SDS011;6560;57.692;11.958;2023-07-20T07:49:15;3.95;;;1.13;;
12990;SDS011;6560;57.692;11.958;2023-07-20T07:51:41;8.00;;;1.20;;
12990;SDS011;6560;57.692;11.958;2023-07-20T07:54:06;2.13;;;0.80;;
12990;SDS011;6560;57.692;11.958;2023-07-20T07:56:32;3.13;;;1.02;;
12990;SDS011;6560;57.692;11.958;2023-07-20T07:58:57;3.72;;;1.25;;
12990;SDS011;6560;57.692;11.958;2023-07-20T08:01:23;3.50;;;0.98;;
12990;SDS011;6560;57.692;11.958;2023-07-20T08:03:50;4.35;;;1.35;;
12990;SDS011;6560;57.692;11.958;2023-07-20T08:06:16;2.97;;;1.00;;
12990;SDS011;6560;57.692;11.958;2023-07-20T08:08:41;3.53;;;0.80;;
12990;SDS011;6560;57.692;11.958;2023-07-20T08:11:10;2.80;;;0.90;;
12990;SDS011;6560;57.692;11.958;2023-07-20T08:13:36;3.78;;;1.15;;
12990;SDS011;6560;57.692;11.958;2023-07-20T08:16:01;4.07;;;1.00;;
12990;SDS011;6560;57.692;11.958;2023-07-20T08:18:27;4.82;;;1.20;;
12990;SDS011;6560;57.692;11.958;2023-07-20T08:20:53;3.75;;;0.90;;
12990;SDS011;6560;57.692;11.958;2023-07-20T08:23:19;2.47;;;1.02;;
12990;SDS011;6560;57.692;11.958;2023-07-20T08:25:45;3.67;;;0.85;;
12990;SDS011;6560;57.692;11.958;2023-07-20T08:28:12;3.70;;;1.40;;
12990;SDS011;6560;57.692;11.958;2023-07-20T08:33:07;2.92;;;0.82;;
12990;SDS011;6560;57.692;11.958;2023-07-20T08:35:34;2.97;;;0.80;;
12990;SDS011;6560;57.692;11.958;2023-07-20T08:37:59;2.28;;;0.77;;
12990;SDS011;6560;57.692;11.958;2023-07-20T08:40:25;3.03;;;0.63;;
12990;SDS011;6560;57.692;11.958;2023-07-20T08:42:50;4.70;;;1.17;;
12990;SDS011;6560;57.692;11.958;2023-07-20T08:45:18;3.88;;;0.77;;
12990;SDS011;6560;57.692;11.958;2023-07-20T08:47:44;3.65;;;1.20;;
12990;SDS011;6560;57.692;11.958;2023-07-20T08:50:15;3.00;;;0.93;;
12990;SDS011;6560;57.692;11.958;2023-07-20T08:52:41;3.63;;;1.05;;
12990;SDS011;6560;57.692;11.958;2023-07-20T08:55:07;6.05;;;0.88;;
12990;SDS011;6560;57.692;11.958;2023-07-20T08:57:33;2.97;;;0.80;;
12990;SDS011;6560;57.692;11.958;2023-07-20T09:00:02;2.33;;;0.80;;
12990;SDS011;6560;57.692;11.958;2023-07-20T09:02:38;2.08;;;1.00;;
12990;SDS011;6560;57.692;11.958;2023-07-20T09:05:08;1.88;;;0.70;;
12990;SDS011;6560;57.692;11.958;2023-07-20T09:07:35;4.22;;;0.60;;
12990;SDS011;6560;57.692;11.958;2023-07-20T09:10:02;3.03;;;1.00;;
12990;SDS011;6560;57.692;11.958;2023-07-20T09:12:31;2.17;;;0.80;;
12990;SDS011;6560;57.692;11.958;2023-07-20T09:15:01;1.10;;;0.70;;
12990;SDS011;6560;57.692;11.958;2023-07-20T09:17:26;1.20;;;0.55;;
12990;SDS011;6560;57.692;11.958;2023-07-20T09:19:53;2.00;;;0.47;;
12990;SDS011;6560;57.692;11.958;2023-07-20T09:22:19;2.58;;;0.50;;
12990;SDS011;6560;57.692;11.958;2023-07-20T09:24:45;1.48;;;0.65;;
12990;SDS011;6560;57.692;11.958;2023-07-20T09:27:10;1.02;;;0.40;;
12990;SDS011;6560;57.692;11.958;2023-07-20T09:29:49;1.83;;;0.50;;
12990;SDS011;6560;57.692;11.958;2023-07-20T09:32:17;1.85;;;0.73;;
12990;SDS011;6560;57.692;11.958;2023-07-20T09:34:48;1.38;;;0.68;;
12990;SDS011;6560;57.692;11.958;2023-07-20T09:37:22;4.22;;;0.77;;
12990;SDS011;6560;57.692;11.958;2023-07-20T09:39:48;2.45;;;0.40;;
12990;SDS011;6560;57.692;11.958;2023-07-20T09:42:17;6.30;;;1.00;;
12990;SDS011;6560;57.692;11.958;2023-07-20T09:44:43;2.00;;;0.80;;
12990;SDS011;6560;57.692;11.958;2023-07-20T09:47:09;2.58;;;0.90;;
12990;SDS011;6560;57.692;11.958;2023-07-20T09:49:41;1.02;;;0.60;;
12990;SDS011;6560;57.692;11.958;2023-07-20T09:52:11;2.55;;;0.65;;
12990;SDS011;6560;57.692;11.958;2023-07-20T09:54:40;3.88;;;0.73;;
12990;SDS011;6560;57.692;11.958;2023-07-20T09:57:09;3.53;;;0.80;;
12990;SDS011;6560;57.692;11.958;2023-07-20T09:59:35;2.05;;;1.10;;
12990;SDS011;6560;57.692;11.958;2023-07-20T10:02:01;2.92;;;1.63;;
12990;SDS011;6560;57.692;11.958;2023-07-20T10:04:36;1.20;;;0.95;;
12990;SDS011;6560;57.692;11.958;2023-07-20T10:07:04;2.45;;;0.90;;
12990;SDS011;6560;57.692;11.958;2023-07-20T10:09:36;2.05;;;0.70;;
12990;SDS011;6560;57.692;11.958;2023-07-20T10:12:04;3.40;;;0.65;;
12990;SDS011;6560;57.692;11.958;2023-07-20T10:14:32;1.60;;;0.80;;
12990;SDS011;6560;57.692;11.958;2023-07-20T10:17:03;2.33;;;0.82;;
12990;SDS011;6560;57.692;11.958;2023-07-20T10:19:36;2.58;;;0.80;;
12990;SDS011;6560;57.692;11.958;2023-07-20T10:22:18;4.10;;;1.23;;
12990;SDS011;6560;57.692;11.958;2023-07-20T10:24:48;1.85;;;0.47;;
12990;SDS011;6560;57.692;11.958;2023-07-20T10:27:15;1.67;;;0.55;;
12990;SDS011;6560;57.692;11.958;2023-07-20T10:29:40;1.02;;;0.52;;
12990;SDS011;6560;57.692;11.958;2023-07-20T10:32:08;3.20;;;0.70;;
12990;SDS011;6560;57.692;11.958;2023-07-20T10:34:34;2.13;;;0.95;;
12990;SDS011;6560;57.692;11.958;2023-07-20T10:37:00;2.10;;;0.73;;
12990;SDS011;6560;57.692;11.958;2023-07-20T10:42:10;6.18;;;1.08;;
12990;SDS011;6560;57.692;11.958;2023-07-20T10:44:39;3.15;;;0.88;;
12990;SDS011;6560;57.692;11.958;2023-07-20T10:47:14;1.30;;;0.50;;
12990;SDS011;6560;57.692;11.958;2023-07-20T10:49:58;1.48;;;0.57;;
12990;SDS011;6560;57.692;11.958;2023-07-20T10:52:36;2.20;;;0.55;;
12990;SDS011;6560;57.692;11.958;2023-07-20T10:55:18;2.33;;;0.70;;
12990;SDS011;6560;57.692;11.958;2023-07-20T10:58:05;3.45;;;1.13;;
12990;SDS011;6560;57.692;11.958;2023-07-20T11:00:56;2.63;;;1.08;;
12990;SDS011;6560;57.692;11.958;2023-07-20T11:03:29;1.70;;;0.60;;
12990;SDS011;6560;57.692;11.958;2023-07-20T11:06:43;3.00;;;0.95;;
12990;SDS011;6560;57.692;11.958;2023-07-20T11:08:56;3.08;;;0.80;;
12990;SDS011;6560;57.692;11.958;2023-07-20T11:11:30;2.65;;;0.70;;
12990;SDS011;6560;57.692;11.958;2023-07-20T11:14:02;3.40;;;0.82;;
12990;SDS011;6560;57.692;11.958;2023-07-20T11:16:40;3.95;;;0.63;;
12990;SDS011;6560;57.692;11.958;2023-07-20T11:19:19;1.42;;;0.60;;
12990;SDS011;6560;57.692;11.958;2023-07-20T11:21:52;3.10;;;0.93;;
12990;SDS011;6560;57.692;11.958;2023-07-20T11:24:19;3.55;;;0.82;;
12990;SDS011;6560;57.692;11.958;2023-07-20T11:29:20;2.45;;;1.00;;
12990;SDS011;6560;57.692;11.958;2023-07-20T11:31:48;2.47;;;0.98;;
12990;SDS011;6560;57.692;11.958;2023-07-20T11:34:18;3.92;;;0.80;;
12990;SDS011;6560;57.692;11.958;2023-07-20T11:36:48;1.48;;;0.77;;
12990;SDS011;6560;57.692;11.958;2023-07-20T11:39:15;2.85;;;0.93;;
12990;SDS011;6560;57.692;11.958;2023-07-20T11:41:48;2.55;;;0.88;;
12990;SDS011;6560;57.692;11.958;2023-07-20T11:44:19;4.03;;;1.30;;
12990;SDS011;6560;57.692;11.958;2023-07-20T11:46:59;5.32;;;0.70;;
12990;SDS011;6560;57.692;11.958;2023-07-20T11:49:35;4.20;;;0.75;;
12990;SDS011;6560;57.692;11.958;2023-07-20T11:52:02;2.78;;;0.40;;
12990;SDS011;6560;57.692;11.958;2023-07-20T11:54:31;2.20;;;0.90;;
12990;SDS011;6560;57.692;11.958;2023-07-20T11:57:00;1.65;;;0.70;;
12990;SDS011;6560;57.692;11.958;2023-07-20T11:59:28;3.10;;;0.70;;
12990;SDS011;6560;57.692;11.958;2023-07-20T12:01:53;1.67;;;0.47;;
12990;SDS011;6560;57.692;11.958;2023-07-20T12:04:22;2.88;;;0.90;;
12990;SDS011;6560;57.692;11.958;2023-07-20T12:06:49;4.38;;;1.17;;
12990;SDS011;6560;57.692;11.958;2023-07-20T12:09:17;1.73;;;0.88;;
12990;SDS011;6560;57.692;11.958;2023-07-20T12:11:44;5.20;;;1.10;;
12990;SDS011;6560;57.692;11.958;2023-07-20T12:14:12;3.67;;;0.82;;
12990;SDS011;6560;57.692;11.958;2023-07-20T12:16:38;4.55;;;1.48;;
12990;SDS011;6560;57.692;11.958;2023-07-20T12:19:08;2.35;;;0.90;;
12990;SDS011;6560;57.692;11.958;2023-07-20T12:21:35;10.38;;;1.80;;
12990;SDS011;6560;57.692;11.958;2023-07-20T12:24:04;2.30;;;0.70;;
12990;SDS011;6560;57.692;11.958;2023-07-20T12:26:30;4.82;;;0.98;;
12990;SDS011;6560;57.692;11.958;2023-07-20T12:28:58;3.95;;;1.55;;
12990;SDS011;6560;57.692;11.958;2023-07-20T12:31:25;3.20;;;1.17;;
12990;SDS011;6560;57.692;11.958;2023-07-20T12:33:52;3.03;;;0.98;;
12990;SDS011;6560;57.692;11.958;2023-07-20T12:36:20;4.88;;;1.10;;
12990;SDS011;6560;57.692;11.958;2023-07-20T12:38:46;4.05;;;1.42;;
12990;SDS011;6560;57.692;11.958;2023-07-20T12:41:12;5.18;;;1.50;;
12990;SDS011;6560;57.692;11.958;2023-07-20T12:43:39;6.10;;;1.77;;
12990;SDS011;6560;57.692;11.958;2023-07-20T12:46:08;4.40;;;1.65;;
12990;SDS011;6560;57.692;11.958;2023-07-20T12:48:35;4.05;;;1.48;;
12990;SDS011;6560;57.692;11.958;2023-07-20T12:51:02;7.15;;;1.92;;
12990;SDS011;6560;57.692;11.958;2023-07-20T12:53:29;6.20;;;2.00;;
12990;SDS011;6560;57.692;11.958;2023-07-20T12:55:56;5.35;;;1.60;;
12990;SDS011;6560;57.692;11.958;2023-07-20T12:58:21;4.80;;;1.35;;
12990;SDS011;6560;57.692;11.958;2023-07-20T13:00:48;4.20;;;1.35;;
12990;SDS011;6560;57.692;11.958;2023-07-20T13:03:14;4.85;;;1.17;;
12990;SDS011;6560;57.692;11.958;2023-07-20T13:05:41;6.32;;;1.75;;
12990;SDS011;6560;57.692;11.958;2023-07-20T13:08:07;3.75;;;1.35;;
12990;SDS011;6560;57.692;11.958;2023-07-20T13:10:32;7.22;;;1.30;;
12990;SDS011;6560;57.692;11.958;2023-07-20T13:12:59;3.38;;;1.10;;
12990;SDS011;6560;57.692;11.958;2023-07-20T13:15:29;5.72;;;1.98;;
12990;SDS011;6560;57.692;11.958;2023-07-20T13:17:58;4.32;;;1.40;;
12990;SDS011;6560;57.692;11.958;2023-07-20T13:20:25;2.42;;;1.10;;
12990;SDS011;6560;57.692;11.958;2023-07-20T13:22:51;4.25;;;1.70;;
12990;SDS011;6560;57.692;11.958;2023-07-20T13:25:18;3.75;;;1.52;;
12990;SDS011;6560;57.692;11.958;2023-07-20T13:27:44;5.03;;;1.27;;
12990;SDS011;6560;57.692;11.958;2023-07-20T13:30:11;5.70;;;2.13;;
12990;SDS011;6560;57.692;11.958;2023-07-20T13:32:43;6.07;;;1.58;;
12990;SDS011;6560;57.692;11.958;2023-07-20T13:35:09;5.97;;;1.75;;
12990;SDS011;6560;57.692;11.958;2023-07-20T13:37:37;5.60;;;1.80;;
12990;SDS011;6560;57.692;11.958;2023-07-20T13:40:03;6.63;;;1.50;;
12990;SDS011;6560;57.692;11.958;2023-07-20T13:42:30;3.33;;;1.20;;
12990;SDS011;6560;57.692;11.958;2023-07-20T13:44:56;3.78;;;1.38;;
12990;SDS011;6560;57.692;11.958;2023-07-20T13:47:21;5.30;;;1.67;;
12990;SDS011;6560;57.692;11.958;2023-07-20T13:49:47;6.35;;;1.80;;
12990;SDS011;6560;57.692;11.958;2023-07-20T13:52:13;4.75;;;1.50;;
12990;SDS011;6560;57.692;11.958;2023-07-20T13:54:39;6.85;;;1.55;;
12990;SDS011;6560;57.692;11.958;2023-07-20T13:57:05;4.80;;;1.65;;
12990;SDS011;6560;57.692;11.958;2023-07-20T13:59:30;6.53;;;1.50;;
12990;SDS011;6560;57.692;11.958;2023-07-20T14:01:56;9.60;;;2.00;;
12990;SDS011;6560;57.692;11.958;2023-07-20T14:04:21;4.15;;;1.90;;
12990;SDS011;6560;57.692;11.958;2023-07-20T14:06:47;4.72;;;1.80;;
12990;SDS011;6560;57.692;11.958;2023-07-20T14:09:13;8.70;;;1.95;;
12990;SDS011;6560;57.692;11.958;2023-07-20T14:11:38;5.18;;;1.90;;
12990;SDS011;6560;57.692;11.958;2023-07-20T14:14:04;5.28;;;1.73;;
12990;SDS011;6560;57.692;11.958;2023-07-20T14:16:29;8.23;;;1.85;;
12990;SDS011;6560;57.692;11.958;2023-07-20T14:18:55;7.18;;;1.70;;
12990;SDS011;6560;57.692;11.958;2023-07-20T14:21:20;6.43;;;1.80;;
12990;SDS011;6560;57.692;11.958;2023-07-20T14:23:47;8.70;;;1.85;;
12990;SDS011;6560;57.692;11.958;2023-07-20T14:26:16;9.13;;;2.38;;
12990;SDS011;6560;57.692;11.958;2023-07-20T14:28:41;5.68;;;1.80;;
12990;SDS011;6560;57.692;11.958;2023-07-20T14:31:07;5.50;;;2.33;;
12990;SDS011;6560;57.692;11.958;2023-07-20T14:33:32;5.47;;;2.28;;
12990;SDS011;6560;57.692;11.958;2023-07-20T14:35:58;9.25;;;2.33;;
12990;SDS011;6560;57.692;11.958;2023-07-20T14:38:24;5.40;;;1.88;;
12990;SDS011;6560;57.692;11.958;2023-07-20T14:40:49;6.38;;;2.13;;
12990;SDS011;6560;57.692;11.958;2023-07-20T14:43:15;9.27;;;1.88;;
12990;SDS011;6560;57.692;11.958;2023-07-20T14:45:40;4.68;;;1.80;;
12990;SDS011;6560;57.692;11.958;2023-07-20T14:48:06;6.95;;;1.92;;
12990;SDS011;6560;57.692;11.958;2023-07-20T14:50:32;5.75;;;2.13;;
12990;SDS011;6560;57.692;11.958;2023-07-20T14:52:59;10.40;;;2.25;;
12990;SDS011;6560;57.692;11.958;2023-07-20T14:55:25;6.35;;;1.55;;
12990;SDS011;6560;57.692;11.958;2023-07-20T14:57:50;4.80;;;1.50;;
12990;SDS011;6560;57.692;11.958;2023-07-20T15:00:17;4.18;;;1.50;;
12990;SDS011;6560;57.692;11.958;2023-07-20T15:02:43;4.32;;;1.88;;
12990;SDS011;6560;57.692;11.958;2023-07-20T15:05:09;2.85;;;1.30;;